sensor_id;sensor_type;location;lat;lon;timestamp;pressure;altitude;pressure_sealevel;temperature;humidity
77011;BME280;65945;53.148;17.956;2023-11-18T00:00:36;101475.54;;;1.17;95.13
77011;BME280;65945;53.148;17.956;2023-11-18T00:03:23;101479.81;;;1.16;95.09
77011;BME280;65945;53.148;17.956;2023-11-18T00:05:50;101481.67;;;1.14;94.83
77011;BME280;65945;53.148;17.956;2023-11-18T00:08:16;101485.56;;;1.13;95.13
77011;BME280;65945;53.148;17.956;2023-11-18T00:10:43;101490.33;;;1.12;95.05
77011;BME280;65945;53.148;17.956;2023-11-18T00:13:09;101493.84;;;1.12;95.15
77011;BME280;65945;53.148;17.956;2023-11-18T00:15:36;101495.27;;;1.12;94.99
77011;BME280;65945;53.148;17.956;2023-11-18T00:18:03;101497.48;;;1.11;95.09
77011;BME280;65945;53.148;17.956;2023-11-18T00:20:29;101497.91;;;1.09;95.25
77011;BME280;65945;53.148;17.956;2023-11-18T00:22:57;101496.92;;;1.05;95.07
77011;BME280;65945;53.148;17.956;2023-11-18T00:25:23;101497.75;;;1.04;95.46
77011;BME280;65945;53.148;17.956;2023-11-18T00:27:50;101502.08;;;1.04;95.28
77011;BME280;65945;53.148;17.956;2023-11-18T00:30:17;101505.40;;;1.04;95.46
77011;BME280;65945;53.148;17.956;2023-11-18T00:32:43;101510.45;;;1.06;95.61
77011;BME280;65945;53.148;17.956;2023-11-18T00:35:10;101512.30;;;1.07;95.52
77011;BME280;65945;53.148;17.956;2023-11-18T00:37:37;101517.45;;;1.06;95.54
77011;BME280;65945;53.148;17.956;2023-11-18T00:40:04;101520.73;;;1.06;95.48
77011;BME280;65945;53.148;17.956;2023-11-18T00:42:31;101523.95;;;1.06;95.52
77011;BME280;65945;53.148;17.956;2023-11-18T00:44:57;101527.20;;;1.07;95.61
77011;BME280;65945;53.148;17.956;2023-11-18T00:47:24;101529.05;;;1.07;95.48
77011;BME280;65945;53.148;17.956;2023-11-18T00:49:51;101534.63;;;1.06;95.72
77011;BME280;65945;53.148;17.956;2023-11-18T00:52:19;101538.69;;;1.06;95.82
77011;BME280;65945;53.148;17.956;2023-11-18T00:54:46;101538.90;;;1.06;95.72
77011;BME280;65945;53.148;17.956;2023-11-18T00:57:13;101538.80;;;1.06;95.83
77011;BME280;65945;53.148;17.956;2023-11-18T00:59:43;101540.13;;;1.04;95.99
77011;BME280;65945;53.148;17.956;2023-11-18T01:02:10;101543.39;;;1.05;96.02
77011;BME280;65945;53.148;17.956;2023-11-18T01:04:37;101547.35;;;1.05;95.95
77011;BME280;65945;53.148;17.956;2023-11-18T01:07:04;101548.34;;;1.04;96.06
77011;BME280;65945;53.148;17.956;2023-11-18T01:09:30;101547.49;;;1.03;96.11
77011;BME280;65945;53.148;17.956;2023-11-18T01:12:03;101550.20;;;1.02;96.03
77011;BME280;65945;53.148;17.956;2023-11-18T01:14:31;101551.34;;;1.01;96.07
77011;BME280;65945;53.148;17.956;2023-11-18T01:16:57;101546.98;;;1.00;96.02
77011;BME280;65945;53.148;17.956;2023-11-18T01:19:24;101544.13;;;1.00;96.04
77011;BME280;65945;53.148;17.956;2023-11-18T01:21:51;101545.50;;;0.99;96.20
77011;BME280;65945;53.148;17.956;2023-11-18T01:24:19;101551.77;;;0.98;96.21
77011;BME280;65945;53.148;17.956;2023-11-18T01:26:46;101550.98;;;0.98;95.90
77011;BME280;65945;53.148;17.956;2023-11-18T01:29:13;101555.98;;;0.99;96.06
77011;BME280;65945;53.148;17.956;2023-11-18T01:31:40;101557.36;;;0.98;95.92
77011;BME280;65945;53.148;17.956;2023-11-18T01:34:07;101558.98;;;0.98;96.06
77011;BME280;65945;53.148;17.956;2023-11-18T01:36:34;101559.66;;;0.97;95.83
77011;BME280;65945;53.148;17.956;2023-11-18T01:39:00;101558.30;;;0.97;95.93
77011;BME280;65945;53.148;17.956;2023-11-18T01:41:27;101563.41;;;0.97;96.05
77011;BME280;65945;53.148;17.956;2023-11-18T01:43:58;101560.77;;;0.97;95.68
77011;BME280;65945;53.148;17.956;2023-11-18T01:46:26;101560.30;;;0.97;95.81
77011;BME280;65945;53.148;17.956;2023-11-18T01:48:54;101558.63;;;0.96;95.58
77011;BME280;65945;53.148;17.956;2023-11-18T01:51:21;101561.73;;;0.95;95.69
77011;BME280;65945;53.148;17.956;2023-11-18T01:53:49;101561.05;;;0.93;95.81
77011;BME280;65945;53.148;17.956;2023-11-18T01:56:16;101560.63;;;0.92;95.65
77011;BME280;65945;53.148;17.956;2023-11-18T01:58:43;101562.67;;;0.90;95.59
77011;BME280;65945;53.148;17.956;2023-11-18T02:01:10;101569.94;;;0.90;95.71
77011;BME280;65945;53.148;17.956;2023-11-18T02:03:37;101573.21;;;0.90;95.73
77011;BME280;65945;53.148;17.956;2023-11-18T02:06:05;101570.52;;;0.89;95.85
77011;BME280;65945;53.148;17.956;2023-11-18T02:08:33;101571.20;;;0.88;96.14
77011;BME280;65945;53.148;17.956;2023-11-18T02:11:08;101574.68;;;0.91;96.14
77011;BME280;65945;53.148;17.956;2023-11-18T02:13:40;101574.27;;;0.91;96.21
77011;BME280;65945;53.148;17.956;2023-11-18T02:16:10;101575.15;;;0.92;96.28
77011;BME280;65945;53.148;17.956;2023-11-18T02:18:38;101579.48;;;0.92;96.24
77011;BME280;65945;53.148;17.956;2023-11-18T02:21:07;101581.21;;;0.92;96.03
77011;BME280;65945;53.148;17.956;2023-11-18T02:23:37;101581.27;;;0.93;96.43
77011;BME280;65945;53.148;17.956;2023-11-18T02:26:23;101582.21;;;0.93;96.27
77011;BME280;65945;53.148;17.956;2023-11-18T02:28:51;101585.85;;;0.93;96.42
77011;BME280;65945;53.148;17.956;2023-11-18T02:31:27;101585.27;;;0.93;96.40
77011;BME280;65945;53.148;17.956;2023-11-18T02:34:02;101587.27;;;0.91;96.39
77011;BME280;65945;53.148;17.956;2023-11-18T02:36:44;101591.59;;;0.90;96.35
77011;BME280;65945;53.148;17.956;2023-11-18T02:39:20;101597.86;;;0.91;96.30
77011;BME280;65945;53.148;17.956;2023-11-18T02:41:51;101597.34;;;0.90;96.38
77011;BME280;65945;53.148;17.956;2023-11-18T02:44:20;101601.07;;;0.89;96.21
77011;BME280;65945;53.148;17.956;2023-11-18T02:46:49;101601.65;;;0.87;96.33
77011;BME280;65945;53.148;17.956;2023-11-18T02:49:16;101607.55;;;0.85;96.06
77011;BME280;65945;53.148;17.956;2023-11-18T02:51:44;101610.02;;;0.85;96.23
77011;BME280;65945;53.148;17.956;2023-11-18T02:54:14;101612.71;;;0.86;96.05
77011;BME280;65945;53.148;17.956;2023-11-18T02:56:42;101613.39;;;0.86;96.11
77011;BME280;65945;53.148;17.956;2023-11-18T02:59:09;101615.24;;;0.86;96.11
77011;BME280;65945;53.148;17.956;2023-11-18T03:01:37;101622.72;;;0.86;96.12
77011;BME280;65945;53.148;17.956;2023-11-18T03:04:07;101623.14;;;0.85;96.20
77011;BME280;65945;53.148;17.956;2023-11-18T03:06:34;101626.41;;;0.86;96.27
77011;BME280;65945;53.148;17.956;2023-11-18T03:09:02;101630.83;;;0.85;96.17
77011;BME280;65945;53.148;17.956;2023-11-18T03:11:33;101630.14;;;0.85;96.32
77011;BME280;65945;53.148;17.956;2023-11-18T03:14:00;101636.58;;;0.83;96.22
77011;BME280;65945;53.148;17.956;2023-11-18T03:16:27;101638.00;;;0.82;96.42
77011;BME280;65945;53.148;17.956;2023-11-18T03:18:54;101643.36;;;0.82;96.44
77011;BME280;65945;53.148;17.956;2023-11-18T03:21:21;101648.73;;;0.83;96.40
77011;BME280;65945;53.148;17.956;2023-11-18T03:23:48;101654.41;;;0.82;96.57
77011;BME280;65945;53.148;17.956;2023-11-18T03:26:14;101656.80;;;0.82;96.86
77011;BME280;65945;53.148;17.956;2023-11-18T03:28:41;101665.80;;;0.82;96.49
77011;BME280;65945;53.148;17.956;2023-11-18T03:31:07;101673.38;;;0.84;96.66
77011;BME280;65945;53.148;17.956;2023-11-18T03:33:35;101677.23;;;0.88;96.75
77011;BME280;65945;53.148;17.956;2023-11-18T03:36:02;101681.57;;;0.91;96.67
77011;BME280;65945;53.148;17.956;2023-11-18T03:38:29;101683.94;;;0.93;96.70
77011;BME280;65945;53.148;17.956;2023-11-18T03:40:56;101688.11;;;0.97;96.66
77011;BME280;65945;53.148;17.956;2023-11-18T03:43:25;101693.80;;;0.98;96.62
77011;BME280;65945;53.148;17.956;2023-11-18T03:45:51;101695.49;;;1.00;96.67
77011;BME280;65945;53.148;17.956;2023-11-18T03:48:23;101702.04;;;1.02;96.48
77011;BME280;65945;53.148;17.956;2023-11-18T03:50:50;101700.23;;;1.05;96.47
77011;BME280;65945;53.148;17.956;2023-11-18T03:53:17;101706.41;;;1.07;96.60
77011;BME280;65945;53.148;17.956;2023-11-18T03:55:44;101706.27;;;1.09;96.51
77011;BME280;65945;53.148;17.956;2023-11-18T03:58:10;101702.95;;;1.13;96.43
77011;BME280;65945;53.148;17.956;2023-11-18T04:00:37;101702.11;;;1.14;96.28
77011;BME280;65945;53.148;17.956;2023-11-18T04:03:03;101702.94;;;1.17;96.51
77011;BME280;65945;53.148;17.956;2023-11-18T04:05:33;101705.80;;;1.20;96.22
77011;BME280;65945;53.148;17.956;2023-11-18T04:08:01;101710.75;;;1.21;96.16
77011;BME280;65945;53.148;17.956;2023-11-18T04:10:27;101714.49;;;1.22;96.03
77011;BME280;65945;53.148;17.956;2023-11-18T04:12:54;101717.02;;;1.24;96.10
77011;BME280;65945;53.148;17.956;2023-11-18T04:15:21;101717.02;;;1.25;96.03
77011;BME280;65945;53.148;17.956;2023-11-18T04:17:47;101725.10;;;1.27;96.02
77011;BME280;65945;53.148;17.956;2023-11-18T04:20:14;101726.05;;;1.27;95.95
77011;BME280;65945;53.148;17.956;2023-11-18T04:22:43;101727.11;;;1.29;95.90
77011;BME280;65945;53.148;17.956;2023-11-18T04:25:11;101733.43;;;1.29;96.00
77011;BME280;65945;53.148;17.956;2023-11-18T04:27:38;101738.23;;;1.28;95.87
77011;BME280;65945;53.148;17.956;2023-11-18T04:30:05;101746.45;;;1.28;95.93
77011;BME280;65945;53.148;17.956;2023-11-18T04:32:32;101745.52;;;1.29;96.04
77011;BME280;65945;53.148;17.956;2023-11-18T04:34:59;101745.08;;;1.28;96.10
77011;BME280;65945;53.148;17.956;2023-11-18T04:37:26;101743.92;;;1.29;95.85
77011;BME280;65945;53.148;17.956;2023-11-18T04:39:53;101744.19;;;1.29;95.93
77011;BME280;65945;53.148;17.956;2023-11-18T04:42:21;101748.24;;;1.30;95.95
77011;BME280;65945;53.148;17.956;2023-11-18T04:44:48;101748.77;;;1.30;96.03
77011;BME280;65945;53.148;17.956;2023-11-18T04:47:15;101748.77;;;1.31;95.87
77011;BME280;65945;53.148;17.956;2023-11-18T04:49:46;101747.31;;;1.33;95.88
77011;BME280;65945;53.148;17.956;2023-11-18T04:52:13;101749.26;;;1.33;95.87
77011;BME280;65945;53.148;17.956;2023-11-18T04:54:40;101758.95;;;1.35;95.95
77011;BME280;65945;53.148;17.956;2023-11-18T04:57:06;101762.86;;;1.35;96.02
77011;BME280;65945;53.148;17.956;2023-11-18T04:59:35;101764.44;;;1.35;96.10
77011;BME280;65945;53.148;17.956;2023-11-18T05:02:02;101762.54;;;1.35;95.79
77011;BME280;65945;53.148;17.956;2023-11-18T05:04:29;101763.60;;;1.37;95.94
77011;BME280;65945;53.148;17.956;2023-11-18T05:06:56;101764.08;;;1.38;96.05
77011;BME280;65945;53.148;17.956;2023-11-18T05:09:23;101765.18;;;1.39;95.76
77011;BME280;65945;53.148;17.956;2023-11-18T05:11:50;101766.81;;;1.38;95.76
77011;BME280;65945;53.148;17.956;2023-11-18T05:14:17;101771.08;;;1.38;95.95
77011;BME280;65945;53.148;17.956;2023-11-18T05:16:44;101771.50;;;1.38;95.80
77011;BME280;65945;53.148;17.956;2023-11-18T05:19:10;101773.03;;;1.39;95.99
77011;BME280;65945;53.148;17.956;2023-11-18T05:21:37;101776.95;;;1.42;95.93
77011;BME280;65945;53.148;17.956;2023-11-18T05:24:04;101776.80;;;1.44;96.12
77011;BME280;65945;53.148;17.956;2023-11-18T05:26:30;101780.23;;;1.46;96.01
77011;BME280;65945;53.148;17.956;2023-11-18T05:28:57;101785.27;;;1.47;95.93
77011;BME280;65945;53.148;17.956;2023-11-18T05:31:24;101785.53;;;1.47;95.91
77011;BME280;65945;53.148;17.956;2023-11-18T05:33:50;101789.13;;;1.47;95.83
77011;BME280;65945;53.148;17.956;2023-11-18T05:36:21;101792.29;;;1.48;95.97
77011;BME280;65945;53.148;17.956;2023-11-18T05:38:54;101794.46;;;1.49;96.03
77011;BME280;65945;53.148;17.956;2023-11-18T05:41:21;101796.98;;;1.50;95.95
77011;BME280;65945;53.148;17.956;2023-11-18T05:43:54;101800.27;;;1.51;95.96
77011;BME280;65945;53.148;17.956;2023-11-18T05:46:24;101798.36;;;1.52;96.19
77011;BME280;65945;53.148;17.956;2023-11-18T05:48:52;101801.89;;;1.51;95.97
77011;BME280;65945;53.148;17.956;2023-11-18T05:51:23;101807.27;;;1.51;96.10
77011;BME280;65945;53.148;17.956;2023-11-18T05:53:51;101803.15;;;1.52;95.92
77011;BME280;65945;53.148;17.956;2023-11-18T05:56:19;101808.21;;;1.52;95.90
77011;BME280;65945;53.148;17.956;2023-11-18T05:58:48;101807.01;;;1.53;96.07
77011;BME280;65945;53.148;17.956;2023-11-18T06:01:15;101810.77;;;1.55;96.20
77011;BME280;65945;53.148;17.956;2023-11-18T06:03:43;101811.87;;;1.56;96.14
77011;BME280;65945;53.148;17.956;2023-11-18T06:06:12;101806.13;;;1.57;96.29
77011;BME280;65945;53.148;17.956;2023-11-18T06:08:39;101801.42;;;1.58;96.28
77011;BME280;65945;53.148;17.956;2023-11-18T06:11:10;101804.38;;;1.62;96.48
77011;BME280;65945;53.148;17.956;2023-11-18T06:13:49;101808.62;;;1.73;96.89
77011;BME280;65945;53.148;17.956;2023-11-18T06:16:20;101816.69;;;1.76;96.66
77011;BME280;65945;53.148;17.956;2023-11-18T06:18:55;101816.86;;;1.76;96.27
77011;BME280;65945;53.148;17.956;2023-11-18T06:21:23;101814.58;;;1.75;96.02
77011;BME280;65945;53.148;17.956;2023-11-18T06:23:51;101819.16;;;1.73;95.81
77011;BME280;65945;53.148;17.956;2023-11-18T06:26:17;101828.61;;;1.70;95.72
77011;BME280;65945;53.148;17.956;2023-11-18T06:28:45;101827.65;;;1.66;95.89
77011;BME280;65945;53.148;17.956;2023-11-18T06:31:12;101833.66;;;1.62;95.63
77011;BME280;65945;53.148;17.956;2023-11-18T06:33:44;101832.48;;;1.59;95.79
77011;BME280;65945;53.148;17.956;2023-11-18T06:38:38;101840.35;;;1.57;95.84
77011;BME280;65945;53.148;17.956;2023-11-18T06:41:05;101839.40;;;1.56;95.80
77011;BME280;65945;53.148;17.956;2023-11-18T06:43:35;101843.61;;;1.55;96.00
77011;BME280;65945;53.148;17.956;2023-11-18T06:48:58;101851.42;;;1.52;96.03
77011;BME280;65945;53.148;17.956;2023-11-18T06:51:26;101856.16;;;1.52;95.88
77011;BME280;65945;53.148;17.956;2023-11-18T06:53:56;101859.01;;;1.53;95.97
77011;BME280;65945;53.148;17.956;2023-11-18T06:56:24;101854.84;;;1.52;96.08
77011;BME280;65945;53.148;17.956;2023-11-18T06:58:51;101851.26;;;1.51;95.98
77011;BME280;65945;53.148;17.956;2023-11-18T07:01:19;101853.61;;;1.50;95.94
77011;BME280;65945;53.148;17.956;2023-11-18T07:03:47;101856.37;;;1.48;95.85
77011;BME280;65945;53.148;17.956;2023-11-18T07:06:20;101859.46;;;1.46;96.09
77011;BME280;65945;53.148;17.956;2023-11-18T07:08:54;101861.69;;;1.46;95.94
77011;BME280;65945;53.148;17.956;2023-11-18T07:11:27;101868.75;;;1.48;96.14
77011;BME280;65945;53.148;17.956;2023-11-18T07:13:54;101868.33;;;1.51;96.27
77011;BME280;65945;53.148;17.956;2023-11-18T07:16:25;101875.42;;;1.56;96.30
77011;BME280;65945;53.148;17.956;2023-11-18T07:18:52;101872.32;;;1.62;96.48
77011;BME280;65945;53.148;17.956;2023-11-18T07:21:19;101872.59;;;1.65;96.12
77011;BME280;65945;53.148;17.956;2023-11-18T07:23:46;101868.48;;;1.69;96.15
77011;BME280;65945;53.148;17.956;2023-11-18T07:26:13;101866.80;;;1.73;96.25
77011;BME280;65945;53.148;17.956;2023-11-18T07:28:42;101869.55;;;1.79;96.12
77011;BME280;65945;53.148;17.956;2023-11-18T07:31:10;101869.98;;;1.83;96.05
77011;BME280;65945;53.148;17.956;2023-11-18T07:33:37;101868.77;;;1.87;95.75
77011;BME280;65945;53.148;17.956;2023-11-18T07:36:04;101871.68;;;1.91;95.93
77011;BME280;65945;53.148;17.956;2023-11-18T07:38:32;101873.89;;;1.96;95.94
77011;BME280;65945;53.148;17.956;2023-11-18T07:41:01;101873.79;;;2.01;95.87
77011;BME280;65945;53.148;17.956;2023-11-18T07:43:29;101872.84;;;2.04;95.68
77011;BME280;65945;53.148;17.956;2023-11-18T07:45:56;101881.39;;;2.06;95.60
77011;BME280;65945;53.148;17.956;2023-11-18T07:48:23;101884.30;;;2.11;95.64
77011;BME280;65945;53.148;17.956;2023-11-18T07:50:49;101883.46;;;2.16;95.58
77011;BME280;65945;53.148;17.956;2023-11-18T07:53:17;101886.31;;;2.19;95.60
77011;BME280;65945;53.148;17.956;2023-11-18T07:55:43;101885.56;;;2.20;95.23
77011;BME280;65945;53.148;17.956;2023-11-18T07:58:11;101889.22;;;2.23;95.00
77011;BME280;65945;53.148;17.956;2023-11-18T08:00:43;101890.38;;;2.25;95.03
77011;BME280;65945;53.148;17.956;2023-11-18T08:03:12;101892.21;;;2.29;95.03
77011;BME280;65945;53.148;17.956;2023-11-18T08:05:44;101889.27;;;2.33;94.91
77011;BME280;65945;53.148;17.956;2023-11-18T08:08:14;101888.84;;;2.35;94.75
77011;BME280;65945;53.148;17.956;2023-11-18T08:10:44;101891.95;;;2.36;94.49
77011;BME280;65945;53.148;17.956;2023-11-18T08:13:11;101891.00;;;2.33;94.11
77011;BME280;65945;53.148;17.956;2023-11-18T08:15:38;101891.69;;;2.28;93.90
77011;BME280;65945;53.148;17.956;2023-11-18T08:18:09;101895.76;;;2.26;94.21
77011;BME280;65945;53.148;17.956;2023-11-18T08:20:37;101896.66;;;2.25;94.40
77011;BME280;65945;53.148;17.956;2023-11-18T08:23:04;101896.20;;;2.23;94.50
77011;BME280;65945;53.148;17.956;2023-11-18T08:25:31;101893.34;;;2.22;94.58
77011;BME280;65945;53.148;17.956;2023-11-18T08:28:01;101893.34;;;2.20;94.39
77011;BME280;65945;53.148;17.956;2023-11-18T08:30:28;101892.70;;;2.23;94.50
77011;BME280;65945;53.148;17.956;2023-11-18T08:32:55;101891.33;;;2.26;94.47
77011;BME280;65945;53.148;17.956;2023-11-18T08:35:21;101894.55;;;2.28;94.30
77011;BME280;65945;53.148;17.956;2023-11-18T08:37:48;101897.66;;;2.30;93.74
77011;BME280;65945;53.148;17.956;2023-11-18T08:40:15;101903.84;;;2.32;93.66
77011;BME280;65945;53.148;17.956;2023-11-18T08:42:42;101901.88;;;2.35;93.10
77011;BME280;65945;53.148;17.956;2023-11-18T08:47:43;101900.61;;;2.39;91.82
77011;BME280;65945;53.148;17.956;2023-11-18T08:50:10;101900.94;;;2.39;91.93
77011;BME280;65945;53.148;17.956;2023-11-18T08:52:39;101906.59;;;2.37;91.64
77011;BME280;65945;53.148;17.956;2023-11-18T08:55:10;101907.05;;;2.38;91.33
77011;BME280;65945;53.148;17.956;2023-11-18T08:57:48;101911.70;;;2.37;91.61
77011;BME280;65945;53.148;17.956;2023-11-18T09:00:28;101921.38;;;2.42;91.71
77011;BME280;65945;53.148;17.956;2023-11-18T09:03:15;101926.91;;;2.51;90.99
77011;BME280;65945;53.148;17.956;2023-11-18T09:05:56;101935.46;;;2.63;91.03
77011;BME280;65945;53.148;17.956;2023-11-18T09:10:54;101945.52;;;2.83;90.94
77011;BME280;65945;53.148;17.956;2023-11-18T09:13:22;101939.77;;;2.88;90.51
77011;BME280;65945;53.148;17.956;2023-11-18T09:15:49;101948.64;;;2.89;90.20
77011;BME280;65945;53.148;17.956;2023-11-18T09:18:16;101950.75;;;2.90;89.68
77011;BME280;65945;53.148;17.956;2023-11-18T09:20:44;101947.36;;;2.93;89.78
77011;BME280;65945;53.148;17.956;2023-11-18T09:23:13;101948.15;;;2.93;89.78
77011;BME280;65945;53.148;17.956;2023-11-18T09:25:42;101949.48;;;2.93;89.89
77011;BME280;65945;53.148;17.956;2023-11-18T09:28:14;101952.86;;;2.94;90.19
77011;BME280;65945;53.148;17.956;2023-11-18T09:30:42;101955.77;;;2.93;89.57
77011;BME280;65945;53.148;17.956;2023-11-18T09:33:25;101960.15;;;2.95;89.54
77011;BME280;65945;53.148;17.956;2023-11-18T09:35:52;101963.39;;;3.04;89.67
77011;BME280;65945;53.148;17.956;2023-11-18T09:38:28;101968.77;;;3.15;89.03
77011;BME280;65945;53.148;17.956;2023-11-18T09:40:57;101975.63;;;3.26;89.03
77011;BME280;65945;53.148;17.956;2023-11-18T09:43:24;101976.27;;;3.40;89.24
77011;BME280;65945;53.148;17.956;2023-11-18T09:45:56;101979.16;;;3.54;89.18
77011;BME280;65945;53.148;17.956;2023-11-18T09:48:29;101981.98;;;3.65;88.73
77011;BME280;65945;53.148;17.956;2023-11-18T09:50:57;101981.88;;;3.77;88.66
77011;BME280;65945;53.148;17.956;2023-11-18T09:53:26;101989.58;;;3.92;88.93
77011;BME280;65945;53.148;17.956;2023-11-18T09:56:03;101992.14;;;4.01;87.68
77011;BME280;65945;53.148;17.956;2023-11-18T09:58:41;101996.80;;;4.08;87.04
77011;BME280;65945;53.148;17.956;2023-11-18T10:01:10;101992.70;;;4.12;85.04
77011;BME280;65945;53.148;17.956;2023-11-18T10:03:41;101993.14;;;4.11;84.67
77011;BME280;65945;53.148;17.956;2023-11-18T10:06:10;101997.28;;;4.08;85.38
77011;BME280;65945;53.148;17.956;2023-11-18T10:08:38;102004.08;;;4.13;85.62
77011;BME280;65945;53.148;17.956;2023-11-18T10:11:05;102008.55;;;4.24;86.18
77011;BME280;65945;53.148;17.956;2023-11-18T10:13:35;102009.45;;;4.36;85.94
77011;BME280;65945;53.148;17.956;2023-11-18T10:16:08;102005.42;;;4.42;84.54
77011;BME280;65945;53.148;17.956;2023-11-18T10:18:35;102003.25;;;4.43;82.45
77011;BME280;65945;53.148;17.956;2023-11-18T10:21:03;102006.45;;;4.40;82.22
77011;BME280;65945;53.148;17.956;2023-11-18T10:23:38;102007.19;;;4.40;82.42
77011;BME280;65945;53.148;17.956;2023-11-18T10:26:05;102008.92;;;4.40;82.56
77011;BME280;65945;53.148;17.956;2023-11-18T10:28:35;102009.55;;;4.44;82.50
77011;BME280;65945;53.148;17.956;2023-11-18T10:31:07;102009.19;;;4.42;81.59
77011;BME280;65945;53.148;17.956;2023-11-18T10:33:37;102013.43;;;4.42;81.15
77011;BME280;65945;53.148;17.956;2023-11-18T10:36:05;102017.08;;;4.43;80.17
77011;BME280;65945;53.148;17.956;2023-11-18T10:38:40;102015.71;;;4.40;79.85
77011;BME280;65945;53.148;17.956;2023-11-18T10:41:09;102012.98;;;4.45;80.33
77011;BME280;65945;53.148;17.956;2023-11-18T10:43:38;102011.41;;;4.50;79.20
77011;BME280;65945;53.148;17.956;2023-11-18T10:46:09;102017.79;;;4.55;80.09
77011;BME280;65945;53.148;17.956;2023-11-18T10:48:47;102026.79;;;4.56;78.23
77011;BME280;65945;53.148;17.956;2023-11-18T10:51:18;102025.98;;;4.50;78.53
77011;BME280;65945;53.148;17.956;2023-11-18T10:53:53;102023.87;;;4.41;77.29
77011;BME280;65945;53.148;17.956;2023-11-18T10:56:25;102016.79;;;4.32;78.24
77011;BME280;65945;53.148;17.956;2023-11-18T10:59:04;102015.48;;;4.29;79.47
77011;BME280;65945;53.148;17.956;2023-11-18T11:01:35;102017.98;;;4.28;79.46
77011;BME280;65945;53.148;17.956;2023-11-18T11:04:09;102023.94;;;4.30;80.07
77011;BME280;65945;53.148;17.956;2023-11-18T11:06:46;102022.73;;;4.30;80.30
77011;BME280;65945;53.148;17.956;2023-11-18T11:09:22;102031.42;;;4.29;80.67
77011;BME280;65945;53.148;17.956;2023-11-18T11:11:55;102030.78;;;4.29;79.99
77011;BME280;65945;53.148;17.956;2023-11-18T11:14:26;102032.46;;;4.25;79.33
77011;BME280;65945;53.148;17.956;2023-11-18T11:17:07;102032.72;;;4.24;80.15
77011;BME280;65945;53.148;17.956;2023-11-18T11:25:50;102033.96;;;4.39;79.26
77011;BME280;65945;53.148;17.956;2023-11-18T11:28:22;102040.72;;;4.40;78.46
77011;BME280;65945;53.148;17.956;2023-11-18T11:31:00;102043.63;;;4.42;78.95
77011;BME280;65945;53.148;17.956;2023-11-18T11:33:39;102041.73;;;4.47;79.01
77011;BME280;65945;53.148;17.956;2023-11-18T11:36:12;102042.32;;;4.55;79.61
77011;BME280;65945;53.148;17.956;2023-11-18T11:38:42;102044.20;;;4.60;78.42
77011;BME280;65945;53.148;17.956;2023-11-18T11:41:13;102048.05;;;4.63;78.66
77011;BME280;65945;53.148;17.956;2023-11-18T11:43:48;102048.25;;;4.66;78.75
77011;BME280;65945;53.148;17.956;2023-11-18T11:46:15;102050.20;;;4.72;78.50
77011;BME280;65945;53.148;17.956;2023-11-18T11:48:50;102050.27;;;4.77;77.84
77011;BME280;65945;53.148;17.956;2023-11-18T11:51:28;102056.29;;;4.80;77.91
77011;BME280;65945;53.148;17.956;2023-11-18T11:54:02;102056.80;;;4.83;77.33
77011;BME280;65945;53.148;17.956;2023-11-18T11:56:45;102056.02;;;4.86;77.71
77011;BME280;65945;53.148;17.956;2023-11-18T11:59:16;102048.38;;;4.88;77.64
77011;BME280;65945;53.148;17.956;2023-11-18T12:01:43;102047.85;;;4.89;77.47
77011;BME280;65945;53.148;17.956;2023-11-18T12:04:16;102049.39;;;4.87;77.25
77011;BME280;65945;53.148;17.956;2023-11-18T12:06:55;102045.73;;;4.87;77.64
77011;BME280;65945;53.148;17.956;2023-11-18T12:09:29;102042.80;;;4.89;77.76
77011;BME280;65945;53.148;17.956;2023-11-18T12:11:59;102046.76;;;4.92;77.70
77011;BME280;65945;53.148;17.956;2023-11-18T12:14:27;102057.66;;;4.94;77.74
77011;BME280;65945;53.148;17.956;2023-11-18T12:19:31;102057.35;;;4.78;74.71
77011;BME280;65945;53.148;17.956;2023-11-18T12:22:02;102057.14;;;4.65;76.23
77011;BME280;65945;53.148;17.956;2023-11-18T12:24:39;102060.14;;;4.61;77.47
77011;BME280;65945;53.148;17.956;2023-11-18T12:27:06;102062.40;;;4.63;78.13
77011;BME280;65945;53.148;17.956;2023-11-18T12:29:42;102054.27;;;4.68;78.57
77011;BME280;65945;53.148;17.956;2023-11-18T12:35:19;102051.14;;;4.74;77.03
77011;BME280;65945;53.148;17.956;2023-11-18T12:40:52;102048.08;;;4.43;75.12
77011;BME280;65945;53.148;17.956;2023-11-18T12:43:46;102046.56;;;4.39;76.38
77011;BME280;65945;53.148;17.956;2023-11-18T12:47:16;102049.92;;;4.43;77.50
77011;BME280;65945;53.148;17.956;2023-11-18T12:49:45;102047.86;;;4.44;75.66
77011;BME280;65945;53.148;17.956;2023-11-18T12:52:16;102046.66;;;4.41;75.44
77011;BME280;65945;53.148;17.956;2023-11-18T12:54:46;102045.20;;;4.38;75.24
77011;BME280;65945;53.148;17.956;2023-11-18T12:57:20;102051.59;;;4.39;75.25
77011;BME280;65945;53.148;17.956;2023-11-18T12:59:49;102060.29;;;4.39;76.06
77011;BME280;65945;53.148;17.956;2023-11-18T13:02:16;102065.33;;;4.38;76.58
77011;BME280;65945;53.148;17.956;2023-11-18T13:04:46;102062.61;;;4.39;76.85
77011;BME280;65945;53.148;17.956;2023-11-18T13:07:16;102064.60;;;4.35;76.33
77011;BME280;65945;53.148;17.956;2023-11-18T13:09:51;102065.05;;;4.31;76.96
77011;BME280;65945;53.148;17.956;2023-11-18T13:12:20;102064.46;;;4.30;77.89
77011;BME280;65945;53.148;17.956;2023-11-18T13:14:50;102058.73;;;4.36;78.63
77011;BME280;65945;53.148;17.956;2023-11-18T13:17:18;102060.61;;;4.39;78.01
77011;BME280;65945;53.148;17.956;2023-11-18T13:19:45;102065.60;;;4.37;77.72
77011;BME280;65945;53.148;17.956;2023-11-18T13:22:13;102067.23;;;4.38;78.35
77011;BME280;65945;53.148;17.956;2023-11-18T13:24:42;102066.41;;;4.42;78.33
77011;BME280;65945;53.148;17.956;2023-11-18T13:27:16;102062.02;;;4.40;77.39